createdAt,value
2023-05-10T00:01:24.317Z,101812.84
2023-05-10T00:03:52.358Z,101814.63
2023-05-10T00:06:20.395Z,101827.88
2023-05-10T00:08:48.252Z,101838.28
2023-05-10T00:11:16.311Z,101836.31
2023-05-10T00:13:44.255Z,101836.19
2023-05-10T00:16:14.205Z,101831.47
2023-05-10T00:18:42.484Z,101829.75
2023-05-10T00:21:10.909Z,101833.13
2023-05-10T00:23:38.826Z,101835.44
2023-05-10T00:26:06.826Z,101834.53
2023-05-10T00:28:34.743Z,101838.72
2023-05-10T00:31:02.633Z,101839.38
2023-05-10T00:33:31.933Z,101850.59
2023-05-10T00:35:59.887Z,101847.00
2023-05-10T00:38:29.022Z,101850.44
2023-05-10T00:40:57.069Z,101849.41
2023-05-10T00:43:25.209Z,101812.81
2023-05-10T00:45:53.171Z,101850.06
2023-05-10T00:48:22.025Z,101843.84
2023-05-10T00:50:52.313Z,101836.28
2023-05-10T00:53:20.954Z,101845.34
2023-05-10T00:55:49.060Z,101845.19
2023-05-10T00:58:17.346Z,101836.34
2023-05-10T01:00:49.608Z,101834.50
2023-05-10T01:03:18.260Z,101834.34
2023-05-10T01:05:46.396Z,101829.75
2023-05-10T01:08:15.794Z,101834.09
2023-05-10T01:10:45.020Z,101802.59
2023-05-10T01:13:14.674Z,101829.44
2023-05-10T01:15:43.183Z,101837.22
2023-05-10T01:18:11.592Z,101803.09
2023-05-10T01:20:49.993Z,101831.66
2023-05-10T01:23:46.062Z,101831.44
2023-05-10T01:26:29.554Z,101825.97
2023-05-10T01:29:32.507Z,101832.75
2023-05-10T01:32:29.370Z,101825.56
2023-05-10T01:35:04.746Z,101832.34
2023-05-10T01:37:47.957Z,101783.44
2023-05-10T01:40:21.996Z,101831.94
2023-05-10T01:42:53.936Z,101797.72
2023-05-10T01:45:29.478Z,101835.47
2023-05-10T01:48:07.893Z,101838.72
2023-05-10T01:50:38.414Z,101828.50
2023-05-10T01:53:10.187Z,101841.81
2023-05-10T01:55:47.495Z,101845.16
2023-05-10T01:58:19.365Z,101832.00
2023-05-10T02:00:48.618Z,101845.06
2023-05-10T02:03:18.477Z,101811.09
2023-05-10T02:05:49.034Z,101838.78
2023-05-10T02:08:20.065Z,101826.94
2023-05-10T02:10:50.041Z,101842.94
2023-05-10T02:13:18.891Z,101838.44
2023-05-10T02:15:49.549Z,101835.75
2023-05-10T02:18:20.125Z,101683.16
2023-05-10T02:20:49.256Z,101843.69
2023-05-10T02:23:19.897Z,101803.25
2023-05-10T02:25:50.307Z,101840.91
2023-05-10T02:28:20.314Z,101844.25
2023-05-10T02:30:49.672Z,101818.19
2023-05-10T02:33:20.543Z,101840.66
2023-05-10T02:35:49.938Z,101836.25
2023-05-10T02:38:19.115Z,101837.97
2023-05-10T02:40:49.172Z,101840.56
2023-05-10T02:43:19.145Z,101838.69
2023-05-10T02:45:50.037Z,101845.63
2023-05-10T02:48:19.857Z,101842.03
2023-05-10T02:50:52.466Z,101846.44
2023-05-10T02:53:25.199Z,101836.91
2023-05-10T02:55:54.869Z,101764.75
2023-05-10T02:58:24.064Z,101819.31
2023-05-10T03:00:52.021Z,101846.53
2023-05-10T03:03:22.132Z,101844.66
2023-05-10T03:05:49.962Z,101840.56
2023-05-10T03:08:18.211Z,101829.97
2023-05-10T03:11:01.967Z,101831.84
2023-05-10T03:13:38.596Z,101841.81
2023-05-10T03:16:12.753Z,101844.56
2023-05-10T03:18:45.912Z,101842.13
2023-05-10T03:21:16.394Z,101838.78
2023-05-10T03:23:48.570Z,101845.88
2023-05-10T03:26:26.670Z,101847.84
2023-05-10T03:28:55.674Z,101848.81
2023-05-10T03:31:23.961Z,101824.16
2023-05-10T03:33:54.488Z,101833.97
2023-05-10T03:36:22.413Z,101842.25
2023-05-10T03:38:50.442Z,101818.94
2023-05-10T03:41:18.343Z,101846.16
2023-05-10T03:43:46.647Z,101838.25
2023-05-10T03:46:14.605Z,101839.69
2023-05-10T03:48:42.464Z,101813.25
2023-05-10T03:51:11.781Z,101836.75
2023-05-10T03:53:39.729Z,101840.41
2023-05-10T03:56:07.820Z,101678.28
2023-05-10T03:58:35.788Z,101849.78
2023-05-10T04:01:03.721Z,101851.81
2023-05-10T04:03:31.762Z,101826.84
2023-05-10T04:06:03.237Z,101850.81
2023-05-10T04:08:33.324Z,101847.59
2023-05-10T04:11:08.243Z,101821.78
2023-05-10T04:13:36.187Z,101832.72
2023-05-10T04:16:04.476Z,101850.22
2023-05-10T04:18:32.902Z,101834.75
2023-05-10T04:21:00.845Z,101856.22
2023-05-10T04:23:29.109Z,101846.88
2023-05-10T04:26:05.790Z,101853.31
2023-05-10T04:28:33.924Z,101845.75
2023-05-10T04:31:05.234Z,101846.13
2023-05-10T04:33:33.660Z,101843.88
2023-05-10T04:36:01.782Z,101817.09
2023-05-10T04:38:30.084Z,101852.44
2023-05-10T04:41:08.269Z,101831.34
2023-05-10T04:43:37.371Z,101847.03
2023-05-10T04:46:05.762Z,101846.56
2023-05-10T04:48:33.734Z,101845.94
2023-05-10T04:51:02.003Z,101841.91
2023-05-10T04:53:29.858Z,101846.59
2023-05-10T04:55:59.804Z,101844.25
2023-05-10T04:58:29.215Z,101845.47
2023-05-10T05:00:57.131Z,101846.63
2023-05-10T05:03:25.236Z,101838.81
2023-05-10T05:05:53.410Z,101807.84
2023-05-10T05:08:22.259Z,101840.47
2023-05-10T05:10:51.285Z,101831.69
2023-05-10T05:13:19.550Z,101845.47
2023-05-10T05:15:48.942Z,101839.66
2023-05-10T05:18:16.835Z,101858.34
2023-05-10T05:20:45.207Z,101850.81
2023-05-10T05:23:13.092Z,101837.63
2023-05-10T05:25:40.942Z,101827.19
2023-05-10T05:28:09.347Z,101854.34
2023-05-10T05:30:37.299Z,101856.25
2023-05-10T05:33:06.543Z,101837.75
2023-05-10T05:35:34.636Z,101853.88
2023-05-10T05:38:02.543Z,101853.47
2023-05-10T05:40:30.465Z,101855.53
2023-05-10T05:42:58.516Z,101845.91
2023-05-10T05:45:26.645Z,101840.00
2023-05-10T05:47:57.108Z,101853.63
2023-05-10T05:50:26.488Z,101857.47
2023-05-10T05:52:56.419Z,101842.69
2023-05-10T05:55:27.113Z,101863.34
2023-05-10T05:57:55.313Z,101852.94
2023-05-10T06:00:23.612Z,101857.84
2023-05-10T06:02:51.636Z,101868.56
2023-05-10T06:05:19.766Z,101856.63
2023-05-10T06:07:50.016Z,101851.69
2023-05-10T06:10:22.728Z,101833.34
2023-05-10T06:12:50.643Z,101855.84
2023-05-10T06:15:18.935Z,101859.59
2023-05-10T06:17:48.373Z,101846.75
2023-05-10T06:20:16.424Z,101804.91
2023-05-10T06:22:44.309Z,101821.59
2023-05-10T06:25:15.507Z,101840.50
2023-05-10T06:27:44.085Z,101841.63
2023-05-10T06:30:14.437Z,101837.38
2023-05-10T06:32:42.849Z,101824.25
2023-05-10T06:35:11.521Z,101842.66
2023-05-10T06:37:39.510Z,101840.25
2023-05-10T06:40:08.999Z,101837.88
2023-05-10T06:42:38.989Z,101840.72
2023-05-10T06:45:07.971Z,101740.72
2023-05-10T06:47:38.679Z,101832.94
2023-05-10T06:50:08.005Z,101835.97
2023-05-10T06:52:37.653Z,101840.81
2023-05-10T06:55:07.222Z,101826.03
2023-05-10T06:57:36.663Z,101844.25
2023-05-10T07:00:07.719Z,101846.34
2023-05-10T07:02:35.748Z,101837.94
2023-05-10T07:05:03.994Z,101790.97
2023-05-10T07:07:32.384Z,101839.78
2023-05-10T07:10:00.306Z,101827.81
2023-05-10T07:12:28.415Z,101819.50
2023-05-10T07:14:56.584Z,101832.75
2023-05-10T07:17:26.163Z,101809.44
2023-05-10T07:19:54.125Z,101834.47
2023-05-10T07:22:22.121Z,101832.34
2023-05-10T07:24:50.194Z,101809.25
2023-05-10T07:27:18.080Z,101834.41
2023-05-10T07:29:46.263Z,101826.03
2023-05-10T07:32:14.240Z,101832.53
2023-05-10T07:34:43.649Z,101828.16
2023-05-10T07:37:11.934Z,101831.09
2023-05-10T07:39:39.753Z,101844.69
2023-05-10T07:42:07.771Z,101825.34
2023-05-10T07:44:35.771Z,101816.56
2023-05-10T07:47:03.604Z,101830.94
2023-05-10T07:49:31.494Z,101824.13
2023-05-10T07:52:01.686Z,101828.63
2023-05-10T07:54:29.671Z,101825.97
2023-05-10T07:56:57.558Z,101827.78
2023-05-10T07:59:25.918Z,101788.63
2023-05-10T08:01:53.800Z,101810.84
2023-05-10T08:04:21.686Z,101817.06
2023-05-10T08:06:49.820Z,101817.06
2023-05-10T08:09:19.274Z,101834.00
2023-05-10T08:11:47.090Z,101814.44
2023-05-10T08:14:15.147Z,101822.44
2023-05-10T08:16:42.973Z,101823.34
2023-05-10T08:19:10.864Z,101834.88
2023-05-10T08:21:40.041Z,101834.91
2023-05-10T08:24:08.323Z,101825.09
2023-05-10T08:26:37.555Z,101833.09
2023-05-10T08:29:05.584Z,101820.59
2023-05-10T08:31:33.629Z,101813.50
2023-05-10T08:34:01.638Z,101824.16
2023-05-10T08:36:30.108Z,101817.88
2023-05-10T08:38:58.722Z,101821.50
2023-05-10T08:41:29.839Z,101814.31
2023-05-10T08:43:59.857Z,101811.53
2023-05-10T08:46:29.588Z,101802.50
2023-05-10T08:48:57.920Z,101817.91
2023-05-10T08:51:29.152Z,101815.34
2023-05-10T08:53:57.550Z,101816.25
2023-05-10T08:56:26.101Z,101825.13
2023-05-10T08:58:54.378Z,101812.69
2023-05-10T09:01:24.656Z,101818.00
2023-05-10T09:03:52.989Z,101813.53
2023-05-10T09:06:21.017Z,101788.66
2023-05-10T09:08:49.672Z,101809.13
2023-05-10T09:11:19.505Z,101806.44
2023-05-10T09:13:49.820Z,101818.00
2023-05-10T09:16:21.889Z,101818.91
2023-05-10T09:18:52.133Z,101814.44
2023-05-10T09:21:21.774Z,101804.53
2023-05-10T09:23:51.332Z,101814.97
2023-05-10T09:26:24.079Z,101778.72
2023-05-10T09:28:53.661Z,101811.59
2023-05-10T09:31:22.187Z,101805.22
2023-05-10T09:33:52.636Z,101819.53
2023-05-10T09:36:20.583Z,101815.00
2023-05-10T09:38:49.980Z,101812.22
2023-05-10T09:41:19.641Z,101800.41
2023-05-10T09:43:47.735Z,101830.59
2023-05-10T09:46:15.915Z,101817.50
2023-05-10T09:48:46.028Z,101814.09
2023-05-10T09:51:21.465Z,101782.13
2023-05-10T09:53:51.629Z,101805.88
2023-05-10T09:56:39.977Z,101819.66
2023-05-10T09:59:09.118Z,101803.72
2023-05-10T10:01:37.110Z,101826.72
2023-05-10T10:04:07.216Z,101816.22
2023-05-10T10:06:41.449Z,101809.25
2023-05-10T10:09:10.219Z,101816.38
2023-05-10T10:11:39.974Z,101777.84
2023-05-10T10:14:08.480Z,101822.03
2023-05-10T10:16:41.453Z,101808.81
2023-05-10T10:19:14.881Z,101807.91
2023-05-10T10:21:44.092Z,101813.28
2023-05-10T10:24:11.948Z,101805.72
2023-05-10T10:26:42.745Z,101804.59
2023-05-10T10:29:23.656Z,101814.25
2023-05-10T10:31:59.753Z,101826.13
2023-05-10T10:34:30.048Z,101815.72
2023-05-10T10:37:06.327Z,101781.13
2023-05-10T10:39:37.905Z,101817.53
2023-05-10T10:42:06.530Z,101791.66
2023-05-10T10:44:41.755Z,101808.16
2023-05-10T10:47:26.042Z,101829.34
2023-05-10T10:50:04.841Z,101800.94
2023-05-10T10:52:36.030Z,101803.84
2023-05-10T10:55:06.486Z,101807.44
2023-05-10T10:57:35.713Z,101812.16
2023-05-10T11:00:31.976Z,101805.13
2023-05-10T11:03:01.703Z,101805.94
2023-05-10T11:05:41.449Z,101782.75
2023-05-10T11:08:13.600Z,101813.09
2023-05-10T11:10:53.163Z,101799.81
2023-05-10T11:13:30.674Z,101799.84
2023-05-10T11:16:00.127Z,101798.78
2023-05-10T11:18:30.792Z,101808.28
2023-05-10T11:21:01.015Z,101784.31
2023-05-10T11:23:36.536Z,101796.09
2023-05-10T11:26:04.468Z,101800.56
2023-05-10T11:28:32.617Z,101772.06
2023-05-10T11:31:00.671Z,101803.94
2023-05-10T11:33:28.598Z,101813.78
2023-05-10T11:35:56.512Z,101793.41
2023-05-10T11:38:24.425Z,101799.41
2023-05-10T11:40:54.466Z,101797.63
2023-05-10T11:43:29.224Z,101786.28
2023-05-10T11:45:57.575Z,101792.47
2023-05-10T11:48:25.584Z,101826.91
2023-05-10T11:51:12.454Z,101814.63
2023-05-10T11:53:40.674Z,101798.72
2023-05-10T11:56:10.170Z,101797.03
2023-05-10T11:58:39.425Z,101667.19
2023-05-10T12:01:09.212Z,101797.31
2023-05-10T12:03:37.924Z,101799.97
2023-05-10T12:06:06.812Z,101806.91
2023-05-10T12:08:36.342Z,101805.53
2023-05-10T12:11:11.425Z,101787.41
2023-05-10T12:13:41.316Z,101778.63
2023-05-10T12:16:16.381Z,101784.06
2023-05-10T12:18:44.615Z,101782.00
2023-05-10T12:21:13.708Z,101782.38
2023-05-10T12:23:43.742Z,101787.34
2023-05-10T12:26:12.168Z,101777.31
2023-05-10T12:28:40.589Z,101797.75
2023-05-10T12:31:09.344Z,101778.56
2023-05-10T12:33:42.687Z,101762.59
2023-05-10T12:36:11.490Z,101774.84
2023-05-10T12:38:40.918Z,101777.81
2023-05-10T12:41:11.653Z,101789.97
2023-05-10T12:43:40.340Z,101729.16
2023-05-10T12:46:09.823Z,101774.78
2023-05-10T12:48:38.309Z,101771.47
2023-05-10T12:51:10.391Z,101764.84
2023-05-10T12:53:38.488Z,101775.00
2023-05-10T12:56:07.083Z,101773.06
2023-05-10T12:58:36.460Z,101771.50
2023-05-10T13:01:05.944Z,101741.91
2023-05-10T13:03:34.046Z,101766.25
2023-05-10T13:06:02.058Z,101777.56
2023-05-10T13:08:34.327Z,101768.50
2023-05-10T13:11:03.036Z,101642.47
2023-05-10T13:13:30.954Z,101778.56
2023-05-10T13:16:00.187Z,101785.19
2023-05-10T13:18:28.365Z,101762.16
2023-05-10T13:20:56.826Z,101784.19
2023-05-10T13:23:24.730Z,101730.81
2023-05-10T13:25:53.075Z,101784.22
2023-05-10T13:28:23.266Z,101765.34
2023-05-10T13:30:51.185Z,101766.31
2023-05-10T13:33:20.693Z,101722.41
2023-05-10T13:35:48.574Z,101769.19
2023-05-10T13:38:16.414Z,101761.19
2023-05-10T13:40:44.496Z,101788.19
2023-05-10T13:43:12.372Z,101773.91
2023-05-10T13:45:40.228Z,101736.66
2023-05-10T13:48:08.282Z,101768.63
2023-05-10T13:50:37.619Z,101760.38
2023-05-10T13:53:06.476Z,101767.47
2023-05-10T13:55:36.620Z,101761.66
2023-05-10T13:58:04.550Z,101756.38
2023-05-10T14:00:32.959Z,101737.69
2023-05-10T14:03:01.772Z,101726.31
2023-05-10T14:05:29.936Z,101764.59
2023-05-10T14:07:59.326Z,101772.06
2023-05-10T14:10:28.239Z,101756.50
2023-05-10T14:12:56.408Z,101755.22
2023-05-10T14:15:24.524Z,101767.00
2023-05-10T14:17:52.837Z,101753.69
2023-05-10T14:20:20.729Z,101772.03
2023-05-10T14:22:48.552Z,101751.53
2023-05-10T14:25:18.088Z,101739.47
2023-05-10T14:27:46.071Z,101762.84
2023-05-10T14:30:14.762Z,101758.50
2023-05-10T14:32:42.761Z,101756.63
2023-05-10T14:35:13.054Z,101751.88
2023-05-10T14:37:41.874Z,101749.25
2023-05-10T14:40:11.001Z,101750.63
2023-05-10T14:42:40.364Z,101754.75
2023-05-10T14:45:09.826Z,101732.69
2023-05-10T14:47:37.990Z,101749.19
2023-05-10T14:50:06.683Z,101743.78
2023-05-10T14:52:34.572Z,101756.19
2023-05-10T14:55:02.858Z,101749.28
2023-05-10T14:57:30.866Z,101752.94
2023-05-10T15:00:00.135Z,101751.00
2023-05-10T15:02:28.955Z,101747.47
2023-05-10T15:04:58.469Z,101734.91
2023-05-10T15:07:26.844Z,101762.22
2023-05-10T15:09:55.280Z,101742.44
2023-05-10T15:12:23.355Z,101746.81
2023-05-10T15:14:51.212Z,101728.63
2023-05-10T15:17:20.584Z,101736.06
2023-05-10T15:19:48.532Z,101739.25
2023-05-10T15:22:16.372Z,101743.50
2023-05-10T15:24:44.338Z,101747.47
2023-05-10T15:27:14.549Z,101734.34
2023-05-10T15:29:42.484Z,101751.28
2023-05-10T15:32:10.548Z,101723.50
2023-05-10T15:34:39.983Z,101723.50
2023-05-10T15:37:07.820Z,101749.09
2023-05-10T15:39:36.001Z,101744.00
2023-05-10T15:42:04.799Z,101745.06
2023-05-10T15:44:32.725Z,101758.06
2023-05-10T15:47:01.053Z,101732.28
2023-05-10T15:49:29.001Z,101732.41
2023-05-10T15:51:58.254Z,101727.31
2023-05-10T15:54:27.036Z,101721.78
2023-05-10T15:56:55.206Z,101752.66
2023-05-10T15:59:23.304Z,101740.16
2023-05-10T16:01:51.769Z,101757.97
2023-05-10T16:04:19.758Z,101740.16
2023-05-10T16:06:47.656Z,101751.19
2023-05-10T16:09:17.215Z,101758.91
2023-05-10T16:11:45.455Z,101700.63
2023-05-10T16:14:13.359Z,101753.78
2023-05-10T16:16:41.477Z,101758.03
2023-05-10T16:19:09.370Z,101716.50
2023-05-10T16:21:38.118Z,101769.09
2023-05-10T16:24:06.374Z,101756.91
2023-05-10T16:26:40.653Z,101759.59
2023-05-10T16:29:08.976Z,101760.53
2023-05-10T16:31:36.875Z,101720.47
2023-05-10T16:34:04.828Z,101764.06
2023-05-10T16:36:34.264Z,101757.75
2023-05-10T16:39:02.732Z,101763.97
2023-05-10T16:41:30.633Z,101762.38
2023-05-10T16:44:00.705Z,101739.91
2023-05-10T16:46:28.790Z,101727.41
2023-05-10T16:48:56.625Z,101761.09
2023-05-10T16:51:24.648Z,101757.72
2023-05-10T16:53:52.487Z,101756.00
2023-05-10T16:56:21.829Z,101756.09
2023-05-10T16:58:50.383Z,101768.81
2023-05-10T17:01:20.049Z,101763.66
2023-05-10T17:03:48.096Z,101754.84
2023-05-10T17:06:16.471Z,101770.88
2023-05-10T17:08:48.553Z,101764.66
2023-05-10T17:11:16.499Z,101772.63
2023-05-10T17:13:44.625Z,101782.06
2023-05-10T17:16:12.809Z,101778.13
2023-05-10T17:18:42.780Z,101780.38
2023-05-10T17:21:10.865Z,101758.50
2023-05-10T17:23:38.734Z,101767.00
2023-05-10T17:26:07.317Z,101772.09
2023-05-10T17:28:35.296Z,101769.94
2023-05-10T17:31:03.334Z,101782.22
2023-05-10T17:33:31.274Z,101787.16
2023-05-10T17:36:00.578Z,101802.84
2023-05-10T17:38:28.418Z,101652.72
2023-05-10T17:40:56.340Z,101778.44
2023-05-10T17:43:26.139Z,101794.03
2023-05-10T17:45:54.327Z,101812.09
2023-05-10T17:48:23.108Z,101795.84
2023-05-10T17:50:51.204Z,101806.31
2023-05-10T17:53:20.735Z,101778.56
2023-05-10T17:55:48.689Z,101805.97
2023-05-10T17:58:16.578Z,101673.69
2023-05-10T18:00:44.529Z,101808.94
2023-05-10T18:03:12.765Z,101793.53
2023-05-10T18:05:40.852Z,101809.44
2023-05-10T18:08:08.781Z,101807.50
2023-05-10T18:10:41.236Z,101799.28
2023-05-10T18:13:09.631Z,101823.81
2023-05-10T18:15:37.594Z,101808.59
2023-05-10T18:18:06.093Z,101779.84
2023-05-10T18:20:34.276Z,101812.88
2023-05-10T18:23:02.621Z,101817.19
2023-05-10T18:25:30.575Z,101818.81
2023-05-10T18:27:59.813Z,101658.88
2023-05-10T18:30:27.752Z,101807.03
2023-05-10T18:32:55.755Z,101794.28
2023-05-10T18:35:23.732Z,101813.94
2023-05-10T18:37:51.884Z,101816.50
2023-05-10T18:40:20.008Z,101824.41
2023-05-10T18:42:50.056Z,101813.66
2023-05-10T18:45:19.994Z,101820.56
2023-05-10T18:47:48.415Z,101828.28
2023-05-10T18:50:17.164Z,101808.53
2023-05-10T18:52:45.577Z,101827.09
2023-05-10T18:55:13.773Z,101827.66
2023-05-10T18:57:42.519Z,101822.13
2023-05-10T19:00:12.688Z,101787.84
2023-05-10T19:02:42.319Z,101817.97
2023-05-10T19:05:11.002Z,101825.69
2023-05-10T19:07:40.573Z,101816.50
2023-05-10T19:10:09.246Z,101834.28
2023-05-10T19:12:37.561Z,101768.72
2023-05-10T19:15:06.470Z,101847.84
2023-05-10T19:17:36.921Z,101852.88
2023-05-10T19:20:10.504Z,101843.69
2023-05-10T19:22:54.107Z,101859.50
2023-05-10T19:25:29.427Z,101835.88
2023-05-10T19:27:58.622Z,101837.72
2023-05-10T19:30:30.272Z,101841.25
2023-05-10T19:32:58.444Z,101780.06
2023-05-10T19:35:27.843Z,101845.19
2023-05-10T19:37:57.832Z,101703.41
2023-05-10T19:40:26.152Z,101838.47
2023-05-10T19:42:56.874Z,101849.78
2023-05-10T19:45:24.704Z,101854.91
2023-05-10T19:47:52.853Z,101845.56
2023-05-10T19:50:21.078Z,101834.59
2023-05-10T19:52:50.910Z,101858.50
2023-05-10T19:55:28.182Z,101859.97
2023-05-10T19:57:56.169Z,101855.38
2023-05-10T20:00:24.379Z,101854.38
2023-05-10T20:02:52.268Z,101841.72
2023-05-10T20:05:20.229Z,101858.41
2023-05-10T20:07:48.163Z,101837.81
2023-05-10T20:10:17.652Z,101852.03
2023-05-10T20:12:51.061Z,101851.97
2023-05-10T20:15:20.830Z,101867.72
2023-05-10T20:17:49.381Z,101858.84
2023-05-10T20:20:18.005Z,101859.63
2023-05-10T20:22:46.264Z,101761.78
2023-05-10T20:25:14.876Z,101868.16
2023-05-10T20:27:44.308Z,101856.50
2023-05-10T20:30:13.193Z,101870.25
2023-05-10T20:32:41.090Z,101870.97
2023-05-10T20:35:09.573Z,101867.34
2023-05-10T20:37:38.333Z,101869.66
2023-05-10T20:40:08.654Z,101785.00
2023-05-10T20:42:36.577Z,101864.72
2023-05-10T20:45:07.421Z,101870.69
2023-05-10T20:47:35.317Z,101854.94
2023-05-10T20:50:03.232Z,101849.50
2023-05-10T20:52:31.536Z,101875.09
2023-05-10T20:54:59.494Z,101877.63
2023-05-10T20:57:27.366Z,101880.13
2023-05-10T20:59:59.139Z,101873.84
2023-05-10T21:02:31.410Z,101879.88
2023-05-10T21:05:00.673Z,101822.38
2023-05-10T21:07:28.572Z,101875.97
2023-05-10T21:09:56.385Z,101882.19
2023-05-10T21:12:24.449Z,101867.59
2023-05-10T21:14:52.308Z,101885.19
2023-05-10T21:17:20.428Z,101851.00
2023-05-10T21:19:50.462Z,101886.53
2023-05-10T21:22:18.304Z,101842.69
2023-05-10T21:24:46.249Z,101877.31
2023-05-10T21:27:14.407Z,101885.00
2023-05-10T21:29:42.316Z,101875.19
2023-05-10T21:32:10.524Z,101842.47
2023-05-10T21:34:38.837Z,101885.22
2023-05-10T21:37:08.156Z,101885.03
2023-05-10T21:39:36.033Z,101882.00
2023-05-10T21:42:04.682Z,101893.41
2023-05-10T21:44:32.624Z,101892.22
2023-05-10T21:47:00.667Z,101895.56
2023-05-10T21:49:28.899Z,101905.91
2023-05-10T21:51:56.850Z,101887.00
2023-05-10T21:54:26.371Z,101886.16
2023-05-10T21:56:56.758Z,101862.59
2023-05-10T21:59:24.656Z,101767.78
2023-05-10T22:01:53.452Z,101901.63
2023-05-10T22:04:21.700Z,101861.16
2023-05-10T22:06:50.167Z,101910.09
2023-05-10T22:09:20.815Z,101902.13
2023-05-10T22:11:50.319Z,101902.91
2023-05-10T22:14:18.198Z,101905.38
2023-05-10T22:16:46.401Z,101909.59
2023-05-10T22:19:14.414Z,101898.88
2023-05-10T22:21:42.444Z,101910.19
2023-05-10T22:24:10.322Z,101917.91
2023-05-10T22:26:38.319Z,101921.25
2023-05-10T22:29:07.550Z,101922.00
2023-05-10T22:31:36.232Z,101922.75
2023-05-10T22:34:04.441Z,101933.19
2023-05-10T22:36:32.810Z,101925.31
2023-05-10T22:39:01.670Z,101929.59
2023-05-10T22:41:29.828Z,101932.13
2023-05-10T22:43:57.658Z,101900.03
2023-05-10T22:46:30.381Z,101912.47
2023-05-10T22:48:59.697Z,101919.63
2023-05-10T22:51:28.595Z,101891.44
2023-05-10T22:53:56.596Z,101911.19
2023-05-10T22:56:27.328Z,101910.06
2023-05-10T22:58:56.489Z,101927.13
2023-05-10T23:01:26.807Z,101908.22
2023-05-10T23:03:58.536Z,101902.75
2023-05-10T23:06:28.018Z,101912.69
2023-05-10T23:08:57.697Z,101924.16
2023-05-10T23:11:25.875Z,101926.75
2023-05-10T23:13:53.895Z,101928.41
2023-05-10T23:16:22.317Z,101933.56
2023-05-10T23:18:51.726Z,101908.44
2023-05-10T23:21:23.685Z,101917.41
2023-05-10T23:23:52.092Z,101939.63
2023-05-10T23:26:20.388Z,101936.06
2023-05-10T23:28:48.607Z,101933.28
2023-05-10T23:31:16.599Z,101934.03
2023-05-10T23:33:44.632Z,101936.50
2023-05-10T23:36:12.742Z,101937.31
2023-05-10T23:38:42.366Z,101933.66
2023-05-10T23:41:10.992Z,101941.38
2023-05-10T23:43:39.157Z,101912.69
2023-05-10T23:46:08.539Z,101941.13
2023-05-10T23:48:36.746Z,101944.50
2023-05-10T23:51:07.680Z,101923.69
2023-05-10T23:53:35.732Z,101873.31
2023-05-10T23:56:05.375Z,101936.78
2023-05-10T23:58:33.372Z,101939.69
